createdAt,value
2023-04-02T00:00:43.426Z,0.00
2023-04-02T00:01:43.470Z,0.00
2023-04-02T00:02:43.512Z,0.00
2023-04-02T00:03:43.512Z,0.00
2023-04-02T00:04:43.462Z,0.00
2023-04-02T00:05:43.440Z,0.00
2023-04-02T00:06:43.476Z,0.00
2023-04-02T00:07:43.486Z,0.00
2023-04-02T00:08:43.498Z,0.00
2023-04-02T00:09:43.532Z,0.00
2023-04-02T00:10:43.549Z,0.00
2023-04-02T00:11:43.577Z,0.00
2023-04-02T00:12:43.585Z,0.00
2023-04-02T00:13:43.615Z,0.00
2023-04-02T00:14:43.624Z,0.00
2023-04-02T00:15:43.665Z,0.00
2023-04-02T00:16:43.960Z,0.00
2023-04-02T00:17:43.670Z,0.00
2023-04-02T00:18:43.703Z,0.00
2023-04-02T00:19:43.719Z,0.00
2023-04-02T00:20:43.744Z,0.00
2023-04-02T00:21:43.771Z,0.00
2023-04-02T00:22:43.816Z,0.00
2023-04-02T00:23:43.844Z,0.00
2023-04-02T00:24:43.802Z,0.00
2023-04-02T00:25:43.777Z,0.00
2023-04-02T00:26:43.792Z,0.00
2023-04-02T00:27:43.828Z,0.00
2023-04-02T00:28:43.807Z,0.00
2023-04-02T00:29:43.837Z,0.00
2023-04-02T00:30:43.853Z,0.00
2023-04-02T00:31:43.888Z,0.00
2023-04-02T00:32:43.911Z,0.00
2023-04-02T00:33:43.921Z,0.00
2023-04-02T00:34:43.945Z,0.00
2023-04-02T00:35:43.990Z,0.00
2023-04-02T00:36:43.964Z,0.00
2023-04-02T00:37:43.977Z,0.00
2023-04-02T00:38:44.297Z,0.00
2023-04-02T00:39:44.003Z,0.00
2023-04-02T00:40:44.027Z,0.00
2023-04-02T00:41:44.048Z,0.00
2023-04-02T00:42:44.070Z,0.00
2023-04-02T00:43:44.091Z,0.00
2023-04-02T00:44:44.126Z,0.00
2023-04-02T00:45:44.185Z,0.00
2023-04-02T00:46:44.173Z,0.00
2023-04-02T00:47:44.198Z,0.00
2023-04-02T00:48:44.192Z,0.00
2023-04-02T00:49:44.217Z,0.00
2023-04-02T00:50:44.264Z,0.00
2023-04-02T00:51:44.263Z,0.00
2023-04-02T00:52:44.252Z,0.00
2023-04-02T00:53:44.264Z,0.00
2023-04-02T00:54:44.306Z,0.00
2023-04-02T00:55:44.321Z,0.00
2023-04-02T00:56:44.344Z,0.00
2023-04-02T00:57:44.362Z,0.00
2023-04-02T00:58:44.378Z,0.00
2023-04-02T00:59:44.441Z,0.00
2023-04-02T01:00:44.393Z,0.00
2023-04-02T01:01:44.438Z,0.00
2023-04-02T01:02:44.537Z,0.00
2023-04-02T01:03:44.612Z,0.00
2023-04-02T01:04:44.430Z,0.00
2023-04-02T01:05:44.423Z,0.00
2023-04-02T01:06:44.449Z,0.00
2023-04-02T01:07:44.500Z,0.00
2023-04-02T01:08:44.476Z,0.00
2023-04-02T01:09:44.500Z,0.00
2023-04-02T01:10:44.556Z,0.00
2023-04-02T01:11:44.528Z,0.00
2023-04-02T01:12:44.520Z,0.00
2023-04-02T01:13:44.544Z,0.00
2023-04-02T01:14:44.615Z,0.00
2023-04-02T01:15:44.592Z,0.00
2023-04-02T01:16:44.579Z,0.00
2023-04-02T01:17:44.655Z,0.00
2023-04-02T01:18:44.590Z,0.00
2023-04-02T01:19:44.614Z,0.00
2023-04-02T01:20:44.641Z,0.00
2023-04-02T01:21:44.667Z,0.00
2023-04-02T01:22:44.633Z,0.00
2023-04-02T01:23:44.655Z,0.00
2023-04-02T01:24:44.677Z,0.00
2023-04-02T01:25:44.698Z,0.00
2023-04-02T01:26:44.763Z,0.00
2023-04-02T01:27:44.713Z,0.00
2023-04-02T01:28:44.733Z,0.00
2023-04-02T01:29:44.754Z,0.00
2023-04-02T01:30:44.761Z,0.00
2023-04-02T01:31:44.980Z,0.00
2023-04-02T01:32:44.866Z,0.00
2023-04-02T01:33:44.808Z,0.00
2023-04-02T01:34:44.825Z,0.00
2023-04-02T01:35:44.877Z,0.00
2023-04-02T01:36:44.867Z,0.00
2023-04-02T01:37:44.957Z,0.00
2023-04-02T01:38:44.837Z,0.00
2023-04-02T01:39:44.852Z,0.00
2023-04-02T01:40:44.872Z,0.00
2023-04-02T01:41:44.900Z,0.00
2023-04-02T01:42:44.941Z,0.00
2023-04-02T01:43:44.917Z,0.00
2023-04-02T01:44:44.920Z,0.00
2023-04-02T01:45:45.171Z,0.00
2023-04-02T01:46:45.027Z,0.00
2023-04-02T01:47:44.987Z,0.00
2023-04-02T01:48:44.984Z,0.00
2023-04-02T01:49:45.004Z,0.00
2023-04-02T01:50:45.017Z,0.00
2023-04-02T01:51:45.030Z,0.00
2023-04-02T01:52:45.060Z,0.00
2023-04-02T01:53:45.071Z,0.00
2023-04-02T01:54:45.089Z,0.00
2023-04-02T01:55:45.116Z,0.00
2023-04-02T01:56:45.127Z,0.00
2023-04-02T01:57:45.145Z,0.00
2023-04-02T01:58:45.203Z,0.00
2023-04-02T01:59:45.171Z,0.00
2023-04-02T02:00:45.272Z,0.00
2023-04-02T02:01:45.244Z,0.00
2023-04-02T02:02:45.297Z,0.00
2023-04-02T02:03:45.230Z,0.00
2023-04-02T02:04:45.223Z,0.00
2023-04-02T02:05:45.241Z,0.00
2023-04-02T02:06:45.256Z,0.00
2023-04-02T02:07:45.280Z,0.00
2023-04-02T02:08:45.309Z,0.00
2023-04-02T02:09:45.329Z,0.00
2023-04-02T02:10:45.340Z,0.00
2023-04-02T02:11:45.353Z,0.00
2023-04-02T02:12:45.386Z,0.00
2023-04-02T02:13:45.401Z,0.00
2023-04-02T02:14:45.450Z,0.00
2023-04-02T02:15:45.423Z,0.00
2023-04-02T02:16:45.541Z,0.00
2023-04-02T02:17:45.500Z,0.00
2023-04-02T02:18:45.475Z,0.00
2023-04-02T02:19:45.500Z,0.00
2023-04-02T02:20:45.479Z,0.00
2023-04-02T02:21:45.503Z,0.00
2023-04-02T02:22:45.525Z,0.00
2023-04-02T02:23:45.551Z,0.00
2023-04-02T02:24:45.556Z,0.00
2023-04-02T02:25:45.590Z,0.00
2023-04-02T02:26:45.571Z,0.00
2023-04-02T02:27:45.597Z,0.00
2023-04-02T02:28:45.571Z,0.00
2023-04-02T02:29:45.597Z,0.00
2023-04-02T02:30:45.653Z,0.00
2023-04-02T02:31:45.899Z,0.00
2023-04-02T02:32:45.645Z,0.00
2023-04-02T02:33:45.653Z,0.00
2023-04-02T02:34:45.675Z,0.00
2023-04-02T02:35:45.723Z,0.00
2023-04-02T02:36:45.685Z,0.00
2023-04-02T02:37:45.720Z,0.00
2023-04-02T02:38:45.731Z,0.00
2023-04-02T02:39:45.750Z,0.00
2023-04-02T02:40:45.770Z,0.00
2023-04-02T02:41:45.792Z,0.00
2023-04-02T02:42:45.789Z,0.00
2023-04-02T02:43:45.786Z,0.00
2023-04-02T02:44:45.757Z,0.00
2023-04-02T02:45:45.800Z,0.00
2023-04-02T02:46:45.837Z,0.00
2023-04-02T02:47:45.893Z,0.00
2023-04-02T02:48:45.851Z,0.00
2023-04-02T02:49:45.823Z,0.00
2023-04-02T02:50:45.844Z,0.00
2023-04-02T02:51:45.878Z,0.00
2023-04-02T02:52:45.891Z,0.00
2023-04-02T02:53:45.902Z,0.00
2023-04-02T02:54:45.916Z,0.00
2023-04-02T02:55:45.949Z,0.00
2023-04-02T02:56:45.980Z,0.00
2023-04-02T02:57:45.999Z,0.00
2023-04-02T02:58:46.032Z,0.00
2023-04-02T02:59:46.039Z,0.00
2023-04-02T03:00:46.067Z,0.00
2023-04-02T03:01:46.164Z,0.00
2023-04-02T03:02:46.251Z,0.00
2023-04-02T03:03:46.178Z,0.00
2023-04-02T03:04:46.097Z,0.00
2023-04-02T03:05:46.117Z,0.00
2023-04-02T03:06:46.292Z,0.00
2023-04-02T03:07:46.117Z,0.00
2023-04-02T03:08:46.145Z,0.00
2023-04-02T03:09:46.166Z,0.00
2023-04-02T03:10:46.174Z,0.00
2023-04-02T03:11:46.441Z,0.00
2023-04-02T03:12:46.228Z,0.00
2023-04-02T03:13:46.238Z,0.00
2023-04-02T03:14:46.306Z,0.00
2023-04-02T03:15:46.303Z,0.00
2023-04-02T03:16:46.265Z,0.00
2023-04-02T03:17:46.363Z,0.00
2023-04-02T03:18:46.309Z,0.00
2023-04-02T03:19:46.290Z,0.00
2023-04-02T03:20:46.305Z,0.00
2023-04-02T03:21:46.329Z,0.00
2023-04-02T03:22:46.351Z,0.00
2023-04-02T03:23:46.370Z,0.00
2023-04-02T03:24:46.382Z,0.00
2023-04-02T03:25:46.409Z,0.00
2023-04-02T03:26:46.438Z,0.00
2023-04-02T03:27:46.444Z,0.00
2023-04-02T03:28:46.447Z,0.00
2023-04-02T03:29:46.442Z,0.00
2023-04-02T03:30:46.465Z,0.00
2023-04-02T03:31:46.535Z,0.00
2023-04-02T03:32:46.626Z,0.00
2023-04-02T03:33:46.492Z,0.00
2023-04-02T03:34:46.536Z,0.00
2023-04-02T03:35:46.558Z,0.00
2023-04-02T03:36:46.544Z,0.00
2023-04-02T03:37:46.528Z,0.00
2023-04-02T03:38:46.554Z,0.00
2023-04-02T03:39:46.563Z,0.00
2023-04-02T03:40:46.628Z,0.00
2023-04-02T03:41:46.603Z,0.00
2023-04-02T03:42:46.624Z,0.00
2023-04-02T03:43:46.646Z,0.00
2023-04-02T03:44:46.672Z,0.00
2023-04-02T03:45:46.674Z,0.00
2023-04-02T03:46:46.704Z,0.00
2023-04-02T03:47:46.752Z,0.00
2023-04-02T03:48:46.698Z,0.00
2023-04-02T03:49:46.719Z,0.00
2023-04-02T03:50:46.775Z,0.00
2023-04-02T03:51:46.742Z,0.00
2023-04-02T03:52:46.753Z,0.00
2023-04-02T03:53:46.791Z,0.00
2023-04-02T03:54:54.074Z,0.00
2023-04-02T03:55:46.773Z,0.00
2023-04-02T03:56:46.802Z,0.00
2023-04-02T03:57:46.794Z,0.00
2023-04-02T03:58:46.819Z,0.00
2023-04-02T03:59:47.195Z,0.00
2023-04-02T04:00:46.872Z,0.00
2023-04-02T04:01:46.995Z,0.00
2023-04-02T04:02:46.893Z,0.00
2023-04-02T04:03:46.916Z,0.00
2023-04-02T04:04:46.915Z,0.00
2023-04-02T04:05:46.939Z,0.00
2023-04-02T04:06:46.993Z,0.00
2023-04-02T04:07:46.954Z,0.00
2023-04-02T04:08:46.974Z,0.00
2023-04-02T04:09:47.011Z,0.00
2023-04-02T04:10:47.276Z,0.00
2023-04-02T04:11:47.034Z,0.00
2023-04-02T04:12:47.034Z,0.00
2023-04-02T04:13:47.045Z,0.00
2023-04-02T04:14:47.077Z,0.00
2023-04-02T04:15:47.054Z,0.00
2023-04-02T04:16:47.083Z,0.00
2023-04-02T04:17:47.116Z,0.00
2023-04-02T04:18:47.108Z,0.00
2023-04-02T04:19:47.102Z,0.00
2023-04-02T04:20:47.137Z,0.00
2023-04-02T04:21:47.105Z,0.00
2023-04-02T04:22:47.148Z,0.00
2023-04-02T04:23:47.126Z,0.00
2023-04-02T04:24:47.156Z,0.00
2023-04-02T04:25:47.134Z,0.00
2023-04-02T04:26:47.139Z,0.00
2023-04-02T04:27:47.152Z,0.00
2023-04-02T04:28:47.190Z,0.00
2023-04-02T04:29:47.167Z,0.00
2023-04-02T04:30:47.186Z,0.00
2023-04-02T04:31:47.423Z,0.00
2023-04-02T04:32:47.245Z,0.00
2023-04-02T04:33:47.204Z,0.00
2023-04-02T04:34:47.221Z,0.00
2023-04-02T04:35:47.306Z,0.00
2023-04-02T04:36:47.261Z,0.00
2023-04-02T04:37:47.267Z,0.00
2023-04-02T04:38:47.304Z,0.00
2023-04-02T04:39:47.312Z,0.00
2023-04-02T04:40:47.338Z,0.00
2023-04-02T04:41:47.353Z,0.00
2023-04-02T04:42:47.335Z,0.00
2023-04-02T04:43:47.366Z,0.00
2023-04-02T04:44:47.380Z,0.00
2023-04-02T04:45:47.442Z,0.00
2023-04-02T04:46:47.413Z,0.00
2023-04-02T04:47:47.441Z,0.00
2023-04-02T04:48:47.382Z,0.00
2023-04-02T04:49:47.419Z,0.00
2023-04-02T04:50:47.393Z,0.00
2023-04-02T04:51:47.421Z,0.00
2023-04-02T04:52:47.400Z,0.00
2023-04-02T04:53:47.418Z,0.00
2023-04-02T04:54:47.433Z,0.00
2023-04-02T04:55:47.421Z,0.00
2023-04-02T04:56:47.476Z,0.00
2023-04-02T04:57:47.400Z,0.00
2023-04-02T04:58:47.418Z,0.00
2023-04-02T04:59:47.441Z,0.00
2023-04-02T05:00:49.099Z,0.00
2023-04-02T05:01:47.563Z,0.00
2023-04-02T05:02:47.571Z,0.00
2023-04-02T05:03:47.478Z,0.00
2023-04-02T05:04:47.485Z,0.00
2023-04-02T05:05:47.451Z,0.00
2023-04-02T05:06:47.463Z,0.00
2023-04-02T05:07:47.488Z,0.00
2023-04-02T05:08:47.511Z,0.00
2023-04-02T05:09:47.519Z,0.00
2023-04-02T05:10:47.540Z,0.00
2023-04-02T05:11:47.506Z,0.00
2023-04-02T05:12:47.523Z,0.00
2023-04-02T05:13:47.553Z,0.00
2023-04-02T05:14:47.567Z,0.00
2023-04-02T05:15:47.654Z,0.00
2023-04-02T05:16:47.587Z,0.00
2023-04-02T05:17:47.667Z,0.00
2023-04-02T05:18:47.626Z,0.00
2023-04-02T05:19:47.599Z,0.00
2023-04-02T05:20:47.631Z,0.00
2023-04-02T05:21:47.644Z,0.00
2023-04-02T05:22:47.682Z,0.00
2023-04-02T05:23:47.699Z,0.00
2023-04-02T05:24:47.714Z,0.00
2023-04-02T05:25:47.733Z,0.00
2023-04-02T05:26:47.771Z,0.00
2023-04-02T05:27:47.762Z,0.00
2023-04-02T05:28:47.761Z,0.00
2023-04-02T05:29:47.808Z,5.62
2023-04-02T05:30:47.787Z,5.62
2023-04-02T05:31:47.847Z,5.62
2023-04-02T05:32:47.818Z,5.62
2023-04-02T05:33:47.795Z,5.62
2023-04-02T05:34:47.829Z,5.62
2023-04-02T05:35:47.879Z,5.62
2023-04-02T05:36:47.851Z,5.62
2023-04-02T05:37:47.872Z,5.62
2023-04-02T05:38:47.881Z,5.62
2023-04-02T05:39:47.872Z,5.62
2023-04-02T05:40:47.888Z,5.62
2023-04-02T05:41:47.874Z,5.62
2023-04-02T05:42:47.928Z,5.62
2023-04-02T05:43:47.902Z,5.62
2023-04-02T05:44:47.938Z,5.62
2023-04-02T05:45:47.963Z,5.62
2023-04-02T05:46:48.010Z,5.62
2023-04-02T05:47:48.037Z,5.62
2023-04-02T05:48:48.001Z,5.62
2023-04-02T05:49:47.994Z,5.62
2023-04-02T05:50:48.016Z,5.62
2023-04-02T05:51:48.032Z,5.62
2023-04-02T05:52:48.053Z,5.62
2023-04-02T05:53:48.083Z,5.62
2023-04-02T05:54:48.100Z,5.62
2023-04-02T05:55:48.130Z,5.62
2023-04-02T05:56:48.182Z,5.62
2023-04-02T05:58:01.312Z,5.62
2023-04-02T05:58:48.262Z,11.25
2023-04-02T05:59:48.178Z,11.25
2023-04-02T06:00:48.213Z,11.25
2023-04-02T06:01:48.208Z,11.25
2023-04-02T06:02:48.230Z,11.25
2023-04-02T06:03:48.475Z,11.25
2023-04-02T06:04:48.229Z,11.25
2023-04-02T06:05:48.258Z,11.25
2023-04-02T06:06:48.244Z,11.25
2023-04-02T06:07:48.267Z,11.25
2023-04-02T06:08:48.268Z,11.25
2023-04-02T06:09:48.292Z,11.25
2023-04-02T06:10:48.342Z,11.25
2023-04-02T06:11:48.338Z,11.25
2023-04-02T06:12:48.323Z,11.25
2023-04-02T06:13:48.348Z,5.62
2023-04-02T06:14:48.417Z,5.62
2023-04-02T06:15:48.407Z,5.62
2023-04-02T06:16:48.413Z,5.62
2023-04-02T06:17:48.432Z,0.00
2023-04-02T06:18:48.433Z,5.62
2023-04-02T06:19:48.421Z,5.62
2023-04-02T06:20:48.417Z,0.00
2023-04-02T06:21:48.442Z,5.62
2023-04-02T06:22:48.447Z,0.00
2023-04-02T06:23:48.447Z,0.00
2023-04-02T06:24:48.460Z,0.00
2023-04-02T06:25:48.493Z,5.62
2023-04-02T06:26:48.553Z,5.62
2023-04-02T06:27:48.563Z,5.62
2023-04-02T06:28:48.789Z,5.62
2023-04-02T06:29:48.586Z,5.62
2023-04-02T06:30:48.632Z,11.25
2023-04-02T06:31:49.482Z,11.25
2023-04-02T06:32:48.701Z,16.88
2023-04-02T06:33:48.618Z,16.88
2023-04-02T06:34:48.654Z,22.50
2023-04-02T06:35:48.708Z,22.50
2023-04-02T06:36:48.712Z,22.50
2023-04-02T06:37:48.732Z,22.50
2023-04-02T06:38:48.757Z,22.50
2023-04-02T06:39:48.781Z,22.50
2023-04-02T06:40:48.803Z,22.50
2023-04-02T06:41:48.832Z,22.50
2023-04-02T06:42:48.854Z,28.12
2023-04-02T06:43:48.878Z,28.12
2023-04-02T06:44:48.900Z,28.12
2023-04-02T06:45:48.935Z,28.12
2023-04-02T06:46:51.080Z,22.50
2023-04-02T06:47:49.052Z,22.50
2023-04-02T06:48:48.917Z,22.50
2023-04-02T06:49:48.941Z,22.50
2023-04-02T06:50:48.981Z,28.12
2023-04-02T06:51:48.962Z,28.12
2023-04-02T06:52:48.993Z,28.12
2023-04-02T06:53:49.024Z,28.12
2023-04-02T06:54:49.080Z,28.12
2023-04-02T06:55:49.054Z,33.75
2023-04-02T06:56:49.117Z,33.75
2023-04-02T06:57:49.116Z,33.75
2023-04-02T06:58:49.124Z,33.75
2023-04-02T06:59:49.108Z,33.75
2023-04-02T07:00:49.132Z,39.38
2023-04-02T07:01:49.320Z,33.75
2023-04-02T07:02:49.182Z,33.75
2023-04-02T07:03:49.190Z,33.75
2023-04-02T07:04:49.171Z,33.75
2023-04-02T07:05:49.165Z,33.75
2023-04-02T07:06:49.188Z,39.38
2023-04-02T07:07:49.213Z,39.38
2023-04-02T07:08:49.261Z,39.38
2023-04-02T07:09:49.249Z,39.38
2023-04-02T07:10:49.279Z,45.00
2023-04-02T07:11:49.304Z,45.00
2023-04-02T07:12:49.287Z,45.00
2023-04-02T07:13:49.339Z,45.00
2023-04-02T07:14:49.323Z,45.00
2023-04-02T07:15:49.364Z,45.00
2023-04-02T07:16:49.366Z,45.00
2023-04-02T07:17:49.384Z,45.00
2023-04-02T07:18:49.410Z,45.00
2023-04-02T07:19:49.442Z,50.62
2023-04-02T07:20:49.383Z,50.62
2023-04-02T07:21:49.415Z,50.62
2023-04-02T07:22:49.441Z,45.00
2023-04-02T07:23:49.434Z,45.00
2023-04-02T07:24:49.429Z,39.38
2023-04-02T07:25:49.406Z,45.00
2023-04-02T07:26:49.441Z,50.62
2023-04-02T07:27:49.703Z,50.62
2023-04-02T07:28:49.453Z,45.00
2023-04-02T07:29:49.490Z,50.62
2023-04-02T07:30:49.473Z,50.62
2023-04-02T07:31:49.622Z,50.62
2023-04-02T07:32:49.549Z,50.62
2023-04-02T07:33:49.520Z,50.62
2023-04-02T07:34:49.527Z,50.62
2023-04-02T07:35:49.514Z,56.25
2023-04-02T07:36:49.495Z,56.25
2023-04-02T07:37:49.528Z,56.25
2023-04-02T07:38:49.578Z,56.25
2023-04-02T07:39:49.558Z,56.25
2023-04-02T07:40:49.583Z,56.25
2023-04-02T07:41:49.567Z,61.88
2023-04-02T07:42:49.603Z,61.88
2023-04-02T07:43:49.611Z,61.88
2023-04-02T07:44:49.588Z,61.88
2023-04-02T07:45:49.618Z,67.50
2023-04-02T07:46:49.720Z,73.12
2023-04-02T07:47:49.728Z,67.50
2023-04-02T07:48:49.691Z,61.88
2023-04-02T07:49:49.674Z,61.88
2023-04-02T07:50:49.731Z,67.50
2023-04-02T07:51:49.688Z,67.50
2023-04-02T07:52:49.721Z,67.50
2023-04-02T07:53:49.749Z,73.12
2023-04-02T07:54:49.735Z,78.75
2023-04-02T07:55:49.769Z,78.75
2023-04-02T07:56:49.834Z,73.12
2023-04-02T07:57:49.827Z,78.75
2023-04-02T07:58:49.828Z,78.75
2023-04-02T07:59:49.826Z,73.12
2023-04-02T08:00:49.806Z,73.12
2023-04-02T08:01:49.869Z,78.75
2023-04-02T08:02:49.857Z,84.38
2023-04-02T08:03:51.661Z,78.75
2023-04-02T08:04:49.836Z,78.75
2023-04-02T08:05:49.873Z,78.75
2023-04-02T08:06:49.917Z,78.75
2023-04-02T08:07:49.888Z,78.75
2023-04-02T08:08:49.945Z,84.38
2023-04-02T08:09:49.928Z,101.25
2023-04-02T08:10:49.949Z,101.25
2023-04-02T08:11:49.963Z,95.62
2023-04-02T08:12:49.997Z,95.62
2023-04-02T08:13:50.052Z,90.00
2023-04-02T08:14:50.069Z,73.12
2023-04-02T08:15:50.047Z,78.75
2023-04-02T08:16:50.109Z,78.75
2023-04-02T08:17:50.195Z,84.38
2023-04-02T08:18:50.081Z,78.75
2023-04-02T08:19:55.039Z,73.12
2023-04-02T08:20:50.098Z,73.12
2023-04-02T08:21:50.114Z,73.12
2023-04-02T08:22:50.157Z,73.12
2023-04-02T08:23:50.157Z,78.75
2023-04-02T08:24:50.420Z,84.38
2023-04-02T08:25:50.175Z,78.75
2023-04-02T08:26:50.162Z,78.75
2023-04-02T08:27:50.194Z,73.12
2023-04-02T08:28:50.206Z,84.38
2023-04-02T08:29:50.187Z,78.75
2023-04-02T08:30:50.280Z,78.75
2023-04-02T08:31:50.218Z,84.38
2023-04-02T08:32:50.243Z,73.12
2023-04-02T08:33:50.317Z,73.12
2023-04-02T08:34:50.250Z,84.38
2023-04-02T08:35:50.281Z,84.38
2023-04-02T08:36:50.234Z,90.00
2023-04-02T08:37:50.218Z,78.75
2023-04-02T08:38:50.270Z,84.38
2023-04-02T08:39:50.250Z,78.75
2023-04-02T08:40:50.280Z,78.75
2023-04-02T08:41:50.316Z,90.00
2023-04-02T08:42:50.292Z,101.25
2023-04-02T08:43:50.329Z,106.88
2023-04-02T08:44:50.321Z,106.88
2023-04-02T08:45:50.389Z,101.25
2023-04-02T08:46:50.335Z,101.25
2023-04-02T08:47:50.368Z,101.25
2023-04-02T08:48:50.397Z,112.50
2023-04-02T08:49:50.400Z,106.88
2023-04-02T08:50:50.384Z,112.50
2023-04-02T08:51:50.413Z,118.12
2023-04-02T08:52:50.405Z,112.50
2023-04-02T08:53:50.431Z,106.88
2023-04-02T08:54:50.455Z,106.88
2023-04-02T08:55:50.443Z,106.88
2023-04-02T08:56:50.436Z,112.50
2023-04-02T08:57:50.459Z,90.00
2023-04-02T08:58:50.727Z,101.25
2023-04-02T08:59:50.500Z,118.12
2023-04-02T09:00:50.486Z,123.75
2023-04-02T09:01:50.559Z,118.12
2023-04-02T09:02:50.593Z,106.88
2023-04-02T09:03:50.535Z,123.75
2023-04-02T09:04:50.632Z,112.50
2023-04-02T09:05:50.563Z,112.50
2023-04-02T09:06:50.596Z,106.88
2023-04-02T09:07:50.602Z,95.62
2023-04-02T09:08:50.632Z,123.75
2023-04-02T09:09:50.625Z,157.50
2023-04-02T09:10:50.652Z,151.88
2023-04-02T09:11:50.666Z,129.38
2023-04-02T09:12:50.649Z,112.50
2023-04-02T09:13:50.643Z,101.25
2023-04-02T09:14:50.664Z,90.00
2023-04-02T09:15:50.770Z,106.88
2023-04-02T09:16:50.724Z,106.88
2023-04-02T09:17:54.092Z,101.25
2023-04-02T09:18:50.711Z,106.88
2023-04-02T09:19:50.756Z,101.25
2023-04-02T09:20:50.771Z,106.88
2023-04-02T09:21:50.822Z,118.12
2023-04-02T09:22:50.804Z,129.38
2023-04-02T09:23:50.793Z,112.50
2023-04-02T09:24:50.815Z,101.25
2023-04-02T09:26:01.336Z,118.12
2023-04-02T09:26:50.894Z,123.75
2023-04-02T09:27:50.890Z,129.38
2023-04-02T09:28:50.876Z,123.75
2023-04-02T09:29:50.900Z,118.12
2023-04-02T09:30:50.889Z,112.50
2023-04-02T09:31:50.978Z,106.88
2023-04-02T09:32:51.097Z,106.88
2023-04-02T09:33:50.922Z,106.88
2023-04-02T09:34:50.920Z,118.12
2023-04-02T09:35:50.969Z,118.12
2023-04-02T09:36:50.975Z,123.75
2023-04-02T09:37:50.952Z,123.75
2023-04-02T09:38:50.966Z,123.75
2023-04-02T09:39:50.985Z,123.75
2023-04-02T09:40:51.034Z,123.75
2023-04-02T09:42:02.901Z,123.75
2023-04-02T09:42:51.083Z,135.00
2023-04-02T09:43:51.067Z,135.00
2023-04-02T09:44:51.052Z,129.38
2023-04-02T09:45:51.081Z,123.75
2023-04-02T09:46:51.092Z,118.12
2023-04-02T09:47:51.125Z,118.12
2023-04-02T09:48:51.090Z,112.50
2023-04-02T09:49:51.125Z,112.50
2023-04-02T09:50:51.156Z,118.12
2023-04-02T09:51:51.212Z,118.12
2023-04-02T09:52:51.192Z,112.50
2023-04-02T09:53:51.231Z,123.75
2023-04-02T09:54:51.218Z,129.38
2023-04-02T09:55:51.241Z,123.75
2023-04-02T09:56:51.303Z,135.00
2023-04-02T09:57:51.275Z,140.62
2023-04-02T09:58:51.305Z,135.00
2023-04-02T09:59:51.284Z,146.25
2023-04-02T10:00:51.356Z,140.62
2023-04-02T10:01:51.339Z,146.25
2023-04-02T10:02:51.410Z,135.00
2023-04-02T10:03:51.384Z,129.38
2023-04-02T10:04:51.388Z,123.75
2023-04-02T10:05:51.374Z,129.38
2023-04-02T10:06:51.403Z,135.00
2023-04-02T10:07:51.399Z,129.38
2023-04-02T10:08:51.424Z,135.00
2023-04-02T10:09:51.410Z,146.25
2023-04-02T10:10:51.459Z,163.12
2023-04-02T10:11:51.454Z,180.00
2023-04-02T10:12:51.448Z,185.62
2023-04-02T10:13:51.488Z,180.00
2023-04-02T10:14:51.541Z,185.62
2023-04-02T10:15:51.541Z,151.88
2023-04-02T10:16:51.610Z,146.25
2023-04-02T10:17:51.636Z,135.00
2023-04-02T10:18:51.596Z,123.75
2023-04-02T10:19:51.627Z,135.00
2023-04-02T10:20:51.763Z,129.38
2023-04-02T10:21:51.655Z,146.25
2023-04-02T10:22:51.685Z,146.25
2023-04-02T10:23:51.710Z,151.88
2023-04-02T10:24:51.749Z,140.62
2023-04-02T10:25:51.742Z,129.38
2023-04-02T10:26:51.765Z,151.88
2023-04-02T10:27:51.785Z,151.88
2023-04-02T10:28:51.794Z,151.88
2023-04-02T10:29:51.783Z,140.62
2023-04-02T10:30:51.830Z,135.00
2023-04-02T10:31:51.790Z,129.38
2023-04-02T10:32:51.841Z,123.75
2023-04-02T10:33:51.834Z,123.75
2023-04-02T10:34:51.864Z,118.12
2023-04-02T10:35:51.927Z,112.50
2023-04-02T10:36:51.891Z,112.50
2023-04-02T10:37:51.915Z,118.12
2023-04-02T10:38:51.935Z,123.75
2023-04-02T10:39:52.223Z,135.00
2023-04-02T10:40:51.978Z,146.25
2023-04-02T10:41:51.994Z,151.88
2023-04-02T10:42:52.016Z,157.50
2023-04-02T10:43:52.043Z,151.88
2023-04-02T10:44:52.077Z,146.25
2023-04-02T10:45:52.132Z,163.12
2023-04-02T10:46:52.132Z,163.12
2023-04-02T10:47:52.214Z,140.62
2023-04-02T10:48:52.124Z,135.00
2023-04-02T10:49:52.234Z,135.00
2023-04-02T10:50:52.157Z,135.00
2023-04-02T10:51:52.178Z,135.00
2023-04-02T10:52:52.207Z,140.62
2023-04-02T10:53:52.230Z,151.88
2023-04-02T10:54:52.277Z,157.50
2023-04-02T10:55:52.258Z,157.50
2023-04-02T10:56:52.271Z,163.12
2023-04-02T10:57:52.292Z,163.12
2023-04-02T10:58:52.330Z,163.12
2023-04-02T10:59:52.332Z,157.50
2023-04-02T11:00:52.356Z,157.50
2023-04-02T11:01:52.416Z,151.88
2023-04-02T11:02:52.445Z,146.25
2023-04-02T11:03:52.442Z,135.00
2023-04-02T11:04:52.374Z,118.12
2023-04-02T11:05:52.400Z,123.75
2023-04-02T11:06:58.023Z,140.62
2023-04-02T11:07:52.381Z,146.25
2023-04-02T11:08:52.377Z,146.25
2023-04-02T11:09:52.410Z,135.00
2023-04-02T11:10:52.397Z,118.12
2023-04-02T11:11:52.434Z,123.75
2023-04-02T11:12:52.418Z,135.00
2023-04-02T11:13:52.455Z,140.62
2023-04-02T11:14:52.492Z,140.62
2023-04-02T11:15:52.526Z,168.75
2023-04-02T11:16:52.495Z,163.12
2023-04-02T11:17:52.509Z,163.12
2023-04-02T11:18:52.500Z,140.62
2023-04-02T11:19:52.471Z,123.75
2023-04-02T11:20:52.506Z,129.38
2023-04-02T11:21:59.688Z,140.62
2023-04-02T11:22:52.544Z,140.62
2023-04-02T11:23:52.577Z,129.38
2023-04-02T11:24:52.556Z,135.00
2023-04-02T11:25:52.587Z,129.38
2023-04-02T11:26:52.607Z,112.50
2023-04-02T11:27:52.632Z,106.88
2023-04-02T11:28:52.681Z,101.25
2023-04-02T11:29:52.655Z,118.12
2023-04-02T11:30:52.660Z,163.12
2023-04-02T11:31:52.807Z,157.50
2023-04-02T11:32:52.718Z,196.88
2023-04-02T11:33:52.708Z,219.38
2023-04-02T11:35:05.210Z,213.75
2023-04-02T11:35:52.772Z,174.38
2023-04-02T11:36:52.796Z,225.00
2023-04-02T11:37:52.800Z,241.88
2023-04-02T11:38:53.050Z,258.75
2023-04-02T11:39:52.834Z,225.00
2023-04-02T11:40:52.870Z,253.12
2023-04-02T11:41:52.866Z,230.62
2023-04-02T11:42:52.847Z,185.62
2023-04-02T11:43:52.871Z,241.88
2023-04-02T11:44:52.911Z,230.62
2023-04-02T11:45:53.541Z,168.75
2023-04-02T11:46:52.994Z,140.62
2023-04-02T11:47:52.966Z,163.12
2023-04-02T11:48:52.963Z,230.62
2023-04-02T11:49:53.017Z,236.25
2023-04-02T11:50:53.024Z,236.25
2023-04-02T11:52:02.326Z,236.25
2023-04-02T11:52:52.993Z,225.00
2023-04-02T11:53:53.030Z,202.50
2023-04-02T11:54:53.056Z,202.50
2023-04-02T11:55:53.034Z,202.50
2023-04-02T11:56:53.141Z,196.88
2023-04-02T11:57:53.078Z,163.12
2023-04-02T11:58:53.102Z,157.50
2023-04-02T11:59:53.132Z,168.75
2023-04-02T12:00:53.153Z,168.75
2023-04-02T12:01:53.225Z,168.75
2023-04-02T12:02:53.206Z,168.75
2023-04-02T12:03:53.205Z,168.75
2023-04-02T12:04:53.265Z,163.12
2023-04-02T12:05:53.238Z,168.75
2023-04-02T12:06:53.261Z,174.38
2023-04-02T12:07:53.245Z,168.75
2023-04-02T12:08:58.029Z,163.12
2023-04-02T12:09:53.236Z,157.50
2023-04-02T12:10:53.235Z,151.88
2023-04-02T12:11:53.242Z,135.00
2023-04-02T12:12:53.213Z,123.75
2023-04-02T12:13:53.237Z,123.75
2023-04-02T12:14:53.268Z,129.38
2023-04-02T12:15:53.301Z,129.38
2023-04-02T12:16:53.385Z,129.38
2023-04-02T12:17:53.380Z,118.12
2023-04-02T12:18:53.341Z,118.12
2023-04-02T12:19:53.380Z,123.75
2023-04-02T12:20:53.376Z,106.88
2023-04-02T12:21:53.388Z,90.00
2023-04-02T12:22:53.394Z,84.38
2023-04-02T12:23:53.391Z,78.75
2023-04-02T12:24:53.609Z,90.00
2023-04-02T12:25:53.367Z,78.75
2023-04-02T12:26:53.400Z,78.75
2023-04-02T12:27:53.387Z,78.75
2023-04-02T12:28:53.422Z,90.00
2023-04-02T12:29:53.407Z,84.38
2023-04-02T12:30:53.425Z,112.50
2023-04-02T12:31:53.401Z,95.62
2023-04-02T12:32:53.438Z,95.62
2023-04-02T12:33:53.426Z,90.00
2023-04-02T12:34:53.457Z,95.62
2023-04-02T12:35:53.505Z,95.62
2023-04-02T12:36:53.522Z,101.25
2023-04-02T12:37:53.507Z,101.25
2023-04-02T12:38:53.514Z,95.62
2023-04-02T12:39:53.505Z,78.75
2023-04-02T12:40:53.495Z,78.75
2023-04-02T12:41:53.534Z,73.12
2023-04-02T12:42:53.535Z,73.12
2023-04-02T12:43:53.510Z,90.00
2023-04-02T12:44:53.537Z,84.38
2023-04-02T12:45:53.624Z,84.38
2023-04-02T12:46:53.569Z,73.12
2023-04-02T12:47:53.652Z,78.75
2023-04-02T12:48:53.615Z,61.88
2023-04-02T12:49:53.596Z,56.25
2023-04-02T12:50:53.614Z,50.62
2023-04-02T12:51:53.611Z,50.62
2023-04-02T12:52:53.614Z,45.00
2023-04-02T12:53:53.612Z,45.00
2023-04-02T12:54:53.617Z,50.62
2023-04-02T12:55:53.631Z,56.25
2023-04-02T12:56:54.394Z,61.88
2023-04-02T12:57:53.646Z,78.75